createdAt,value
2022-08-19T00:02:09.092Z,21.35
2022-08-19T00:12:17.035Z,21.26
2022-08-19T00:22:22.837Z,21.18
2022-08-19T00:32:29.359Z,21.11
2022-08-19T00:42:36.447Z,21.09
2022-08-19T00:52:47.022Z,21.10
2022-08-19T01:02:54.649Z,21.11
2022-08-19T01:13:03.941Z,21.06
2022-08-19T01:23:10.058Z,20.98
2022-08-19T01:33:16.677Z,20.89
2022-08-19T01:43:22.616Z,20.82
2022-08-19T01:53:30.501Z,20.75
2022-08-19T02:03:39.924Z,20.74
2022-08-19T02:13:45.826Z,20.78
2022-08-19T02:23:52.456Z,20.89
2022-08-19T02:33:58.869Z,20.99
2022-08-19T02:44:29.824Z,21.02
2022-08-19T02:54:32.385Z,21.11
2022-08-19T03:04:38.114Z,21.19
2022-08-19T03:14:43.999Z,21.22
2022-08-19T03:24:49.946Z,21.24
2022-08-19T03:34:55.914Z,21.26
2022-08-19T03:45:02.365Z,21.31
2022-08-19T03:55:10.199Z,21.34
2022-08-19T04:05:16.420Z,21.50
2022-08-19T04:15:22.540Z,21.74
2022-08-19T04:25:28.537Z,21.97
2022-08-19T04:35:41.094Z,22.28
2022-08-19T04:45:47.837Z,22.74
2022-08-19T04:55:54.860Z,23.11
2022-08-19T05:06:00.762Z,23.29
2022-08-19T05:16:08.011Z,24.51
2022-08-19T05:26:13.918Z,28.35
2022-08-19T05:36:21.047Z,30.95
2022-08-19T05:46:28.073Z,33.15
2022-08-19T05:56:39.083Z,35.12
2022-08-19T06:06:45.120Z,36.13
2022-08-19T06:16:53.331Z,38.21
2022-08-19T06:27:02.559Z,39.14
2022-08-19T06:37:08.553Z,40.49
2022-08-19T06:47:23.166Z,40.38
2022-08-19T06:57:33.795Z,39.05
2022-08-19T07:07:39.736Z,37.83
2022-08-19T07:17:52.596Z,38.26
2022-08-19T07:27:59.250Z,39.66
2022-08-19T07:38:07.647Z,41.13
2022-08-19T07:48:13.547Z,40.75
2022-08-19T07:58:23.450Z,40.75
2022-08-19T08:08:48.361Z,42.94
2022-08-19T08:18:54.416Z,43.23
2022-08-19T08:29:00.423Z,42.74
2022-08-19T08:39:06.667Z,38.47
2022-08-19T08:49:22.566Z,35.94
2022-08-19T08:59:33.424Z,35.23
2022-08-19T09:09:44.449Z,35.34
2022-08-19T09:19:58.145Z,35.24
2022-08-19T09:30:04.354Z,35.12
2022-08-19T09:40:13.056Z,34.12
2022-08-19T09:50:20.367Z,33.59
2022-08-19T10:00:26.345Z,33.42
2022-08-19T10:10:36.906Z,33.44
2022-08-19T10:20:43.372Z,33.19
2022-08-19T10:30:49.518Z,33.06
2022-08-19T10:40:55.706Z,32.85
2022-08-19T10:51:22.833Z,32.56
2022-08-19T11:01:31.108Z,32.48
2022-08-19T11:11:40.610Z,32.39
2022-08-19T11:21:48.669Z,32.41
2022-08-19T11:31:56.185Z,32.61
2022-08-19T11:42:04.025Z,32.73
2022-08-19T11:52:10.258Z,32.75
2022-08-19T12:02:17.217Z,32.91
2022-08-19T12:12:24.576Z,32.92
2022-08-19T12:22:30.992Z,33.04
2022-08-19T12:32:37.868Z,32.94
2022-08-19T12:42:44.393Z,32.88
2022-08-19T12:52:50.603Z,33.14
2022-08-19T13:02:56.994Z,33.46
2022-08-19T13:13:04.298Z,33.44
2022-08-19T13:23:10.476Z,33.39
2022-08-19T13:33:16.586Z,33.25
2022-08-19T13:43:24.583Z,33.12
2022-08-19T13:53:31.437Z,32.96
2022-08-19T14:03:38.946Z,32.90
2022-08-19T14:13:44.705Z,32.90
2022-08-19T14:23:50.785Z,32.90
2022-08-19T14:33:57.144Z,32.73
2022-08-19T14:44:02.481Z,32.85
2022-08-19T14:54:08.739Z,32.95
2022-08-19T15:04:14.894Z,32.91
2022-08-19T15:14:21.981Z,32.86
2022-08-19T15:24:28.288Z,32.74
2022-08-19T15:34:32.597Z,32.57
2022-08-19T15:44:38.457Z,32.34
2022-08-19T15:54:44.261Z,32.23
2022-08-19T16:05:06.997Z,32.23
2022-08-19T16:15:15.141Z,32.17
2022-08-19T16:25:21.735Z,32.03
2022-08-19T16:35:26.002Z,31.86
2022-08-19T16:45:32.654Z,31.63
2022-08-19T16:55:38.821Z,31.32
2022-08-19T17:05:46.599Z,30.97
2022-08-19T17:15:52.506Z,30.74
2022-08-19T17:25:58.560Z,30.51
2022-08-19T17:36:06.649Z,30.24
2022-08-19T17:46:17.580Z,29.91
2022-08-19T17:56:25.010Z,29.55
2022-08-19T18:06:29.723Z,29.22
2022-08-19T18:16:36.610Z,28.89
2022-08-19T18:26:42.653Z,28.61
2022-08-19T18:36:53.707Z,28.37
2022-08-19T18:47:17.755Z,28.13
2022-08-19T18:57:24.906Z,27.88
2022-08-19T19:07:32.184Z,27.64
2022-08-19T19:17:38.249Z,27.41
2022-08-19T19:27:45.293Z,27.18
2022-08-19T19:37:52.817Z,27.01
2022-08-19T19:48:00.569Z,26.84
2022-08-19T19:58:07.155Z,26.72
2022-08-19T20:08:31.090Z,26.63
2022-08-19T20:18:37.087Z,26.58
2022-08-19T20:28:43.435Z,26.56
2022-08-19T20:38:56.642Z,26.44
2022-08-19T20:49:03.069Z,26.39
2022-08-19T20:59:11.895Z,26.44
2022-08-19T21:09:18.190Z,26.29
2022-08-19T21:19:24.367Z,25.80
2022-08-19T21:29:32.126Z,25.07
2022-08-19T21:39:37.928Z,24.55
2022-08-19T21:49:43.960Z,24.10
2022-08-19T21:59:49.780Z,23.77
2022-08-19T22:09:55.768Z,23.53
2022-08-19T22:20:01.718Z,23.33
2022-08-19T22:30:11.135Z,23.20
2022-08-19T22:40:17.123Z,23.34
2022-08-19T22:50:23.686Z,23.47
2022-08-19T23:00:31.160Z,23.78
2022-08-19T23:10:37.013Z,23.59
2022-08-19T23:20:44.881Z,23.31
2022-08-19T23:30:52.422Z,23.07
2022-08-19T23:41:00.702Z,23.12
2022-08-19T23:51:10.470Z,23.16
